Time;durP1;ratioP1;P1;durP2;ratioP2;P2;SDS_P1;SDS_P2;PMS_P1;PMS_P2;Temp;Humidity;BMP_temperature;BMP_pressure;BME280_temperature;BME280_humidity;BME280_pressure;Samples;Min_cycle;Max_cycle;Signal;HPM_P1;HPM_P2
2023/11/15 00:00:06;;;;;;;23.52;17.83;;;;;;;8.04;100.00;101796.06;5046478;28;20021;-68
2023/11/15 00:02:36;;;;;;;25.33;17.67;;;;;;;7.52;100.00;101749.00;5028137;28;20474;-68
2023/11/15 00:05:02;;;;;;;25.70;17.90;;;;;;;8.01;100.00;101809.53;5048810;28;20120;-68
2023/11/15 00:07:28;;;;;;;23.05;19.23;;;;;;;7.75;100.00;101742.53;5050572;28;20028;-68
2023/11/15 00:09:54;;;;;;;29.17;21.55;;;;;;;8.17;100.00;101785.25;5031383;28;20029;-67
2023/11/15 00:12:20;;;;;;;31.48;23.27;;;;;;;8.08;100.00;101798.63;5049744;28;20099;-68
2023/11/15 00:14:45;;;;;;;34.53;24.90;;;;;;;7.93;100.00;101798.47;5031857;28;20097;-68
2023/11/15 00:17:11;;;;;;;35.05;24.25;;;;;;;7.88;100.00;101769.72;5031960;28;20474;-69
2023/11/15 00:19:37;;;;;;;35.45;25.17;;;;;;;8.12;100.00;101752.25;5050131;28;20035;-69
2023/11/15 00:22:04;;;;;;;39.90;27.35;;;;;;;7.42;100.00;101651.06;5049557;28;20035;-68
2023/11/15 00:24:30;;;;;;;38.35;27.20;;;;;;;7.90;100.00;101768.06;5048595;28;20039;-68
2023/11/15 00:26:57;;;;;;;40.15;27.55;;;;;;;7.58;100.00;101704.41;5031522;28;20127;-68
2023/11/15 00:29:24;;;;;;;37.45;26.67;;;;;;;7.87;100.00;101788.28;5048473;28;20025;-68
2023/11/15 00:31:49;;;;;;;33.42;23.92;;;;;;;7.75;100.00;101765.34;5049150;28;20495;-68
2023/11/15 00:34:14;;;;;;;28.20;20.55;;;;;;;7.66;100.00;101768.63;5031379;28;20029;-68
2023/11/15 00:36:44;;;;;;;28.80;20.02;;;;;;;7.34;100.00;101703.22;5032030;28;20106;-68
2023/11/15 00:39:10;;;;;;;25.58;19.00;;;;;;;7.43;100.00;101723.56;5049378;28;20475;-68
2023/11/15 00:41:36;;;;;;;27.02;19.15;;;;;;;7.11;100.00;101676.78;5048839;28;20097;-68
2023/11/15 00:44:06;;;;;;;27.08;19.95;;;;;;;7.64;100.00;101760.16;5031409;28;20029;-68
2023/11/15 00:46:35;;;;;;;27.60;19.35;;;;;;;7.14;100.00;101680.22;5049307;28;20119;-68
2023/11/15 00:49:01;;;;;;;29.15;19.50;;;;;;;7.84;100.00;101762.94;5049415;28;20060;-68
2023/11/15 00:51:27;;;;;;;27.50;18.80;;;;;;;7.57;100.00;101760.03;5049080;28;20066;-68
2023/11/15 00:53:53;;;;;;;25.25;17.90;;;;;;;7.63;100.00;101768.56;5031529;28;20036;-68
2023/11/15 00:56:19;;;;;;;28.65;18.05;;;;;;;7.73;100.00;101767.00;5049325;28;20033;-68
2023/11/15 00:58:44;;;;;;;26.08;17.02;;;;;;;7.64;100.00;101777.00;5031270;28;20025;-68
2023/11/15 01:01:11;;;;;;;24.38;15.95;;;;;;;7.94;100.00;101768.94;5048859;28;20029;-67
2023/11/15 01:03:45;;;;;;;23.67;16.58;;;;;;;7.45;100.00;101706.72;5048985;28;20032;-68
2023/11/15 01:06:11;;;;;;;21.67;15.63;;;;;;;7.69;100.00;101801.56;5048757;28;20101;-68
2023/11/15 01:08:37;;;;;;;25.48;17.73;;;;;;;7.13;100.00;101650.69;5049182;28;20040;-68
2023/11/15 01:11:05;;;;;;;23.17;17.42;;;;;;;7.32;100.00;101710.81;5048897;28;20082;-68
2023/11/15 01:13:32;;;;;;;27.25;18.25;;;;;;;7.55;100.00;101759.16;5029933;28;20064;-68
2023/11/15 01:15:58;;;;;;;24.77;17.10;;;;;;;7.19;100.00;101730.84;5047601;28;20123;-68
2023/11/15 01:18:23;;;;;;;26.10;17.08;;;;;;;7.01;100.00;101684.25;5047553;28;20056;-68
2023/11/15 01:20:51;;;;;;;21.08;15.85;;;;;;;7.08;100.00;101714.66;5048619;28;20033;-68
2023/11/15 01:23:17;;;;;;;20.20;15.35;;;;;;;7.44;100.00;101745.53;5048462;28;20033;-68
2023/11/15 01:25:42;;;;;;;23.65;17.73;;;;;;;7.36;100.00;101732.78;5048882;28;20029;-68
2023/11/15 01:28:08;;;;;;;26.10;18.25;;;;;;;7.48;100.00;101737.16;5048768;28;20108;-67
2023/11/15 01:30:33;;;;;;;24.05;17.30;;;;;;;7.22;100.00;101724.16;5048408;28;20033;-68
2023/11/15 01:32:59;;;;;;;27.80;18.55;;;;;;;7.58;100.00;101744.91;5048325;28;20048;-68
2023/11/15 01:35:24;;;;;;;28.08;20.17;;;;;;;7.48;100.00;101711.84;5048010;28;20115;-68
2023/11/15 01:37:51;;;;;;;25.48;19.00;;;;;;;7.14;100.00;101646.47;5048156;28;20083;-68
2023/11/15 01:40:19;;;;;;;24.63;18.48;;;;;;;7.27;100.00;101683.75;5030350;28;20040;-67
2023/11/15 01:42:46;;;;;;;26.13;19.23;;;;;;;7.42;100.00;101691.53;5029797;28;20036;-68
2023/11/15 01:45:11;;;;;;;26.48;19.58;;;;;;;7.20;100.00;101656.66;5048099;28;20081;-68
2023/11/15 01:47:37;;;;;;;23.92;17.83;;;;;;;6.86;100.00;101651.16;5030422;28;20037;-69
2023/11/15 01:50:10;;;;;;;24.67;17.63;;;;;;;7.48;100.00;101715.25;5030328;28;20033;-68
2023/11/15 01:52:46;;;;;;;28.05;17.25;;;;;;;7.37;100.00;101714.22;5047479;28;21299;-68
2023/11/15 01:55:14;;;;;;;25.60;18.08;;;;;;;7.39;100.00;101678.84;5048112;28;20189;-68
2023/11/15 01:57:40;;;;;;;22.63;16.73;;;;;;;7.12;100.00;101648.13;5048288;28;21596;-68
2023/11/15 02:00:10;;;;;;;22.55;16.75;;;;;;;7.21;100.00;101648.28;5047212;28;20037;-70
2023/11/15 02:02:38;;;;;;;22.30;15.63;;;;;;;6.78;100.00;101578.59;5048243;28;20048;-68
2023/11/15 02:05:04;;;;;;;22.80;16.45;;;;;;;7.55;100.00;101708.56;5047671;28;20033;-68
2023/11/15 02:07:30;;;;;;;22.35;16.23;;;;;;;7.23;100.00;101631.44;5047913;28;20029;-68
2023/11/15 02:09:55;;;;;;;23.70;17.70;;;;;;;6.96;100.00;101621.81;5048151;28;20025;-67
2023/11/15 02:12:21;;;;;;;25.05;18.80;;;;;;;7.23;100.00;101669.38;5030182;28;20029;-68
2023/11/15 02:14:46;;;;;;;25.58;20.08;;;;;;;7.15;100.00;101697.06;5048005;28;20427;-68
2023/11/15 02:17:13;;;;;;;32.15;22.42;;;;;;;7.38;100.00;101703.31;5047755;28;20025;-68
2023/11/15 02:19:39;;;;;;;29.13;20.77;;;;;;;7.40;100.00;101703.31;5047102;28;20795;-68
2023/11/15 02:22:04;;;;;;;25.85;20.95;;;;;;;7.18;100.00;101651.59;5047526;28;20488;-68
2023/11/15 02:24:31;;;;;;;27.33;20.33;;;;;;;7.52;100.00;101673.09;5029552;28;20440;-68
2023/11/15 02:26:56;;;;;;;25.02;19.40;;;;;;;7.26;100.00;101613.75;5047067;28;20037;-69
2023/11/15 02:29:22;;;;;;;26.33;19.75;;;;;;;7.52;100.00;101640.22;5047628;28;20163;-68
2023/11/15 02:31:47;;;;;;;27.58;19.52;;;;;;;7.40;100.00;101650.19;5047749;28;20029;-69
2023/11/15 02:34:13;;;;;;;26.38;19.33;;;;;;;7.45;100.00;101682.28;5047091;28;20461;-69
2023/11/15 02:36:39;;;;;;;27.50;20.08;;;;;;;7.64;100.00;101693.50;5046311;28;20037;-68
2023/11/15 02:39:06;;;;;;;26.25;19.35;;;;;;;7.27;100.00;101615.47;5047715;28;20171;-69
2023/11/15 02:41:32;;;;;;;25.70;18.20;;;;;;;7.27;100.00;101626.41;5047337;28;20037;-68
2023/11/15 02:43:57;;;;;;;21.90;16.42;;;;;;;7.11;100.00;101637.16;5047651;28;20501;-68
2023/11/15 02:46:23;;;;;;;21.15;15.07;;;;;;;7.09;100.00;101646.41;5029362;28;20169;-69
2023/11/15 02:48:52;;;;;;;22.00;15.10;;;;;;;7.17;100.00;101634.72;5047340;28;20037;-68
2023/11/15 02:51:18;;;;;;;22.98;15.95;;;;;;;7.32;100.00;101704.88;5046887;28;20384;-69
2023/11/15 02:53:43;;;;;;;21.27;15.57;;;;;;;7.00;100.00;101636.19;5047113;28;20135;-69
2023/11/15 02:56:09;;;;;;;22.00;16.45;;;;;;;7.50;100.00;101675.63;5046631;28;20487;-68
2023/11/15 02:58:35;;;;;;;25.80;19.63;;;;;;;6.91;100.00;101636.91;5047421;28;20114;-69
2023/11/15 03:01:06;;;;;;;27.58;20.33;;;;;;;7.15;100.00;101676.00;5028483;28;20035;-69
2023/11/15 03:03:35;;;;;;;28.48;22.20;;;;;;;6.82;100.00;101630.88;5046914;28;20039;-69
2023/11/15 03:06:02;;;;;;;28.88;21.83;;;;;;;7.33;100.00;101686.38;5044554;28;20527;-69
2023/11/15 03:08:27;;;;;;;26.45;18.60;;;;;;;7.40;100.00;101678.88;5046988;28;20035;-69
2023/11/15 03:10:53;;;;;;;28.05;19.67;;;;;;;6.96;100.00;101635.31;5028205;28;20031;-68
2023/11/15 03:13:18;;;;;;;26.02;17.08;;;;;;;7.26;100.00;101709.88;5047050;28;20111;-69
2023/11/15 03:15:45;;;;;;;25.55;17.65;;;;;;;7.05;100.00;101648.91;5046568;28;20415;-67
2023/11/15 03:18:11;;;;;;;24.23;19.30;;;;;;;6.55;100.00;101593.44;5029253;28;20029;-67
2023/11/15 03:20:37;;;;;;;27.60;19.80;;;;;;;7.15;100.00;101688.66;5028645;28;20041;-69
2023/11/15 03:23:02;;;;;;;25.02;19.45;;;;;;;6.71;100.00;101638.34;5047065;28;20028;-69
2023/11/15 03:25:28;;;;;;;26.17;18.67;;;;;;;6.64;100.00;101636.53;5046518;28;20506;-68
2023/11/15 03:27:54;;;;;;;23.55;18.27;;;;;;;6.59;100.00;101614.56;5046618;28;20036;-68
2023/11/15 03:30:20;;;;;;;31.67;21.98;;;;;;;6.71;100.00;101683.81;5045895;28;20041;-69
2023/11/15 03:32:45;;;;;;;26.15;15.60;;;;;;;6.79;100.00;101676.34;5045521;28;20142;-68
2023/11/15 03:35:11;;;;;;;30.20;22.73;;;;;;;6.37;100.00;101610.84;5028745;28;20032;-68
2023/11/15 03:37:36;;;;;;;30.55;23.13;;;;;;;6.20;100.00;101593.75;5046485;28;20116;-69
2023/11/15 03:40:03;;;;;;;28.83;23.10;;;;;;;6.56;100.00;101670.94;5045583;28;20094;-69
2023/11/15 03:42:28;;;;;;;28.70;20.73;;;;;;;6.65;100.00;101667.69;5026541;28;20511;-69
2023/11/15 03:44:54;;;;;;;26.92;19.50;;;;;;;6.41;100.00;101616.81;5027913;28;20033;-69
2023/11/15 03:47:19;;;;;;;45.22;31.63;;;;;;;6.68;100.00;101682.91;5046648;28;20039;-69
2023/11/15 03:49:45;;;;;;;81.18;51.90;;;;;;;6.73;100.00;101671.19;5045852;28;20035;-70
2023/11/15 03:52:11;;;;;;;44.53;29.85;;;;;;;6.54;100.00;101638.88;5046415;28;20107;-68
2023/11/15 03:54:36;;;;;;;28.02;19.77;;;;;;;6.37;100.00;101668.94;5045866;28;20041;-68
2023/11/15 03:57:04;;;;;;;23.50;17.00;;;;;;;6.69;100.00;101669.44;5028440;28;20035;-68
2023/11/15 03:59:30;;;;;;;25.15;16.55;;;;;;;6.75;100.00;101646.78;5046530;28;20044;-68
2023/11/15 04:01:55;;;;;;;26.55;17.92;;;;;;;6.43;100.00;101651.38;5045536;28;20033;-69
2023/11/15 04:04:21;;;;;;;28.52;21.23;;;;;;;6.34;100.00;101593.13;5045962;28;20033;-69
2023/11/15 04:06:47;;;;;;;28.63;19.42;;;;;;;6.86;100.00;101671.41;5027477;28;20083;-68
2023/11/15 04:09:13;;;;;;;23.42;15.82;;;;;;;6.81;100.00;101670.47;5046013;28;20057;-69
2023/11/15 04:11:40;;;;;;;27.63;20.77;;;;;;;6.81;100.00;101662.06;5028450;28;20468;-69
2023/11/15 04:14:05;;;;;;;26.27;18.67;;;;;;;6.65;100.00;101628.13;5045527;28;20396;-68
2023/11/15 04:16:31;;;;;;;32.95;22.67;;;;;;;6.86;100.00;101650.31;5045756;28;20040;-69
2023/11/15 04:18:56;;;;;;;45.63;31.30;;;;;;;6.80;100.00;101632.53;5046183;28;20086;-69
2023/11/15 04:21:22;;;;;;;43.85;29.88;;;;;;;6.73;100.00;101640.88;5046170;28;20036;-69
2023/11/15 04:23:48;;;;;;;37.05;27.60;;;;;;;6.69;100.00;101649.22;5028129;28;20044;-69
2023/11/15 04:26:13;;;;;;;30.98;22.75;;;;;;;6.77;100.00;101647.66;5046144;28;20025;-68
2023/11/15 04:28:39;;;;;;;33.55;24.02;;;;;;;6.41;100.00;101583.97;5027323;28;20560;-69
2023/11/15 04:31:04;;;;;;;37.00;26.83;;;;;;;6.50;100.00;101622.84;5044289;28;20037;-67
2023/11/15 04:33:30;;;;;;;23.73;16.55;;;;;;;6.00;100.00;101576.59;5027273;28;20029;-69
2023/11/15 04:35:55;;;;;;;22.90;16.75;;;;;;;5.77;100.00;101579.53;5045049;28;20290;-72
2023/11/15 04:38:21;;;;;;;26.58;17.10;;;;;;;6.54;100.00;101659.94;5045933;28;20510;-69
2023/11/15 04:40:46;;;;;;;25.00;18.13;;;;;;;6.20;100.00;101662.75;5045330;28;20480;-69
2023/11/15 04:43:12;;;;;;;27.65;18.60;;;;;;;5.83;100.00;101625.03;5045346;28;20491;-69
2023/11/15 04:45:37;;;;;;;25.35;17.15;;;;;;;5.86;100.00;101648.69;5043758;28;20056;-69
2023/11/15 04:48:04;;;;;;;25.95;18.65;;;;;;;6.20;100.00;101652.66;5046185;28;20759;-69
2023/11/15 04:50:30;;;;;;;35.20;22.25;;;;;;;5.96;100.00;101606.81;5046924;28;20036;-68
2023/11/15 04:52:56;;;;;;;43.78;23.27;;;;;;;5.78;100.00;101583.75;5029928;28;20033;-70
2023/11/15 04:55:21;;;;;;;42.17;24.25;;;;;;;5.95;100.00;101626.16;5048034;28;20509;-71
2023/11/15 04:57:47;;;;;;;40.92;24.83;;;;;;;5.61;100.00;101597.72;5031414;28;20029;-71
2023/11/15 05:00:13;;;;;;;47.50;33.53;;;;;;;5.79;100.00;101575.34;5049161;28;20534;-71
2023/11/15 05:02:38;;;;;;;49.10;39.08;;;;;;;6.06;100.00;101632.22;5049356;28;20043;-72
2023/11/15 05:05:05;;;;;;;45.38;33.80;;;;;;;5.65;100.00;101569.22;5048488;28;20561;-71
2023/11/15 05:07:36;;;;;;;37.58;28.02;;;;;;;5.83;100.00;101627.56;5048487;28;20028;-70
2023/11/15 05:10:04;;;;;;;37.30;26.13;;;;;;;5.90;100.00;101612.59;5032320;28;20029;-74
2023/11/15 05:12:31;;;;;;;44.78;22.48;;;;;;;5.78;100.00;101629.19;5032229;28;20052;-74
2023/11/15 05:14:56;;;;;;;40.83;20.83;;;;;;;5.92;100.00;101615.16;5049884;28;20094;-76
2023/11/15 05:17:22;;;;;;;45.08;21.00;;;;;;;5.77;100.00;101589.63;5032678;28;20388;-75
2023/11/15 05:19:48;;;;;;;60.10;20.60;;;;;;;5.81;100.00;101579.59;5050728;28;20404;-78
2023/11/15 05:22:13;;;;;;;50.72;19.83;;;;;;;5.85;100.00;101590.63;5049825;28;20483;-74
2023/11/15 05:24:39;;;;;;;47.85;19.17;;;;;;;5.83;100.00;101524.13;5050203;28;20112;-75
2023/11/15 05:27:05;;;;;;;41.67;21.25;;;;;;;6.27;100.00;101583.75;5032026;28;20025;-73
2023/11/15 05:29:31;;;;;;;52.35;19.73;;;;;;;5.57;100.00;101480.81;5047834;28;20033;-78
2023/11/15 05:31:57;;;;;;;43.70;18.40;;;;;;;5.94;100.00;101532.75;5050093;28;20110;-76
2023/11/15 05:34:22;;;;;;;39.25;18.92;;;;;;;6.08;100.00;101561.59;5050591;28;20036;-75
2023/11/15 05:36:47;;;;;;;83.93;22.92;;;;;;;6.26;100.00;101659.50;5048557;28;20033;-76
2023/11/15 05:39:13;;;;;;;50.80;20.60;;;;;;;6.27;100.00;101694.00;5049155;28;20044;-75
2023/11/15 05:41:39;;;;;;;48.47;23.08;;;;;;;6.28;100.00;101752.13;5048970;28;20033;-72
2023/11/15 05:44:05;;;;;;;40.20;22.20;;;;;;;6.36;100.00;101820.47;5032292;28;20059;-75
2023/11/15 05:46:30;;;;;;;40.30;23.83;;;;;;;6.53;100.00;101854.47;5049369;28;20424;-72
2023/11/15 05:48:56;;;;;;;43.47;24.70;;;;;;;8.77;100.00;101936.31;5047159;28;20064;-75
2023/11/15 05:51:21;;;;;;;34.40;22.75;;;;;;;6.72;100.00;101904.50;5048965;28;20033;-73
2023/11/15 05:53:47;;;;;;;40.25;26.02;;;;;;;6.98;100.00;101891.53;5030875;28;20400;-72
2023/11/15 05:56:12;;;;;;;38.30;25.17;;;;;;;6.81;100.00;101872.66;5048293;28;20060;-72
2023/11/15 05:58:38;;;;;;;34.88;22.92;;;;;;;6.52;100.00;101782.88;5049066;28;20503;-74
2023/11/15 06:01:03;;;;;;;37.53;23.58;;;;;;;6.99;100.00;101872.16;5030469;28;20028;-75
2023/11/15 06:03:29;;;;;;;40.88;26.08;;;;;;;6.81;100.00;101897.13;5049564;28;20032;-75
2023/11/15 06:05:54;;;;;;;38.08;24.73;;;;;;;6.71;100.00;101888.53;5050095;28;20543;-75
2023/11/15 06:08:20;;;;;;;41.70;25.20;;;;;;;6.90;100.00;101860.22;5048205;28;20033;-73
2023/11/15 06:10:47;;;;;;;40.35;25.50;;;;;;;6.60;100.00;101791.44;5048119;28;20494;-70
2023/11/15 06:13:15;;;;;;;40.53;27.45;;;;;;;6.87;100.00;101794.41;5047977;28;20033;-74
2023/11/15 06:15:44;;;;;;;49.22;29.40;;;;;;;7.17;100.00;101869.09;5048730;28;20060;-72
2023/11/15 06:18:12;;;;;;;56.00;31.08;;;;;;;6.85;100.00;101811.22;5048101;28;20052;-75
2023/11/15 06:20:39;;;;;;;83.70;34.70;;;;;;;7.46;100.00;101875.44;5048031;28;20043;-74
2023/11/15 06:23:05;;;;;;;73.03;33.88;;;;;;;7.24;100.00;101875.94;5047738;28;20033;-74
2023/11/15 06:25:32;;;;;;;82.13;32.28;;;;;;;7.22;100.00;101834.59;5048525;28;20155;-72
2023/11/15 06:27:58;;;;;;;95.25;35.17;;;;;;;7.53;100.00;101877.22;5049098;28;20036;-75
2023/11/15 06:30:24;;;;;;;111.13;38.35;;;;;;;7.21;100.00;101820.25;5049251;28;20032;-76
2023/11/15 06:32:50;;;;;;;128.93;37.85;;;;;;;7.22;100.00;101849.75;5048425;28;20032;-74
2023/11/15 06:35:18;;;;;;;97.07;34.83;;;;;;;6.71;100.00;101769.75;5048160;28;20059;-74
2023/11/15 06:37:48;;;;;;;121.97;38.40;;;;;;;7.03;100.00;101842.72;5048881;28;20035;-74
2023/11/15 06:40:15;;;;;;;144.70;43.78;;;;;;;7.35;100.00;101866.84;5047216;28;20039;-74
2023/11/15 06:42:41;;;;;;;138.00;50.17;;;;;;;7.68;100.00;101936.56;5030798;28;20033;-70
2023/11/15 06:45:08;;;;;;;229.00;89.40;;;;;;;7.57;100.00;101910.22;5029515;28;20036;-73
2023/11/15 06:47:35;;;;;;;229.57;75.40;;;;;;;7.66;100.00;101909.50;5030395;28;20056;-75
2023/11/15 06:50:07;;;;;;;186.82;61.83;;;;;;;8.03;100.00;101948.84;5029776;28;20033;-74
2023/11/15 06:52:32;;;;;;;;;;;;;;;8.20;100.00;101993.84;5048710;28;20029;-75
2023/11/15 06:54:58;;;;;;;267.20;108.20;;;;;;;8.40;100.00;102020.38;5030064;28;19928;-73
2023/11/15 06:57:24;;;;;;;218.55;82.00;;;;;;;8.30;100.00;102018.53;5048721;28;20495;-75
2023/11/15 06:59:50;;;;;;;218.77;53.85;;;;;;;8.29;100.00;102010.91;5047960;28;20041;-75
2023/11/15 07:02:15;;;;;;;221.98;45.78;;;;;;;8.26;100.00;102015.94;5048330;28;20033;-75
2023/11/15 07:04:41;;;;;;;133.50;42.28;;;;;;;8.12;100.00;101985.28;5030453;28;20419;-78
2023/11/15 07:07:06;;;;;;;137.93;41.35;;;;;;;8.26;100.00;102047.19;5030467;28;20032;-74
2023/11/15 07:09:32;;;;;;;96.18;40.38;;;;;;;8.49;100.00;102063.59;5048334;28;20110;-76
2023/11/15 07:11:57;;;;;;;111.18;34.88;;;;;;;8.04;100.00;102003.75;5048318;28;20032;-77
2023/11/15 07:14:24;;;;;;;81.68;38.00;;;;;;;8.53;100.00;102072.09;5047211;28;20056;-75
2023/11/15 07:16:55;;;;;;;93.13;41.35;;;;;;;8.22;100.00;102024.31;5048210;28;21902;-75
2023/11/15 07:19:25;;;;;;;96.90;42.13;;;;;;;8.28;100.00;102060.72;5048031;28;20056;-80
2023/11/15 07:21:54;;;;;;;104.00;46.58;;;;;;;8.17;100.00;102020.84;5047803;28;20086;-79
2023/11/15 07:24:23;;;;;;;102.63;46.78;;;;;;;8.25;100.00;102037.91;5031328;28;21228;-79
2023/11/15 07:26:49;;;;;;;97.32;43.97;;;;;;;8.37;100.00;102034.69;5047275;28;20075;-79
2023/11/15 07:29:18;;;;;;;219.82;45.03;;;;;;;8.17;100.00;102030.97;5048619;28;20037;-77
2023/11/15 07:31:51;;;;;;;90.85;40.05;;;;;;;8.79;100.00;102096.13;5047306;28;20032;-77
2023/11/15 07:34:18;;;;;;;90.05;39.25;;;;;;;8.45;100.00;102018.75;5047784;28;20029;-73
2023/11/15 07:36:43;;;;;;;83.10;39.03;;;;;;;8.80;100.00;102079.19;5048588;28;20522;-76
2023/11/15 07:39:13;;;;;;;82.00;38.45;;;;;;;8.61;100.00;102046.03;5048132;28;20056;-78
2023/11/15 07:41:39;;;;;;;83.10;39.97;;;;;;;8.89;100.00;102061.59;5048616;28;20036;-77
2023/11/15 07:44:05;;;;;;;74.18;36.33;;;;;;;8.84;100.00;102042.91;5048163;28;20419;-78
2023/11/15 07:46:31;;;;;;;91.35;42.92;;;;;;;8.70;100.00;102045.28;5047930;28;20071;-79
2023/11/15 07:48:58;;;;;;;81.63;40.05;;;;;;;8.79;100.00;102045.41;5048209;28;20056;-78
2023/11/15 07:51:24;;;;;;;86.70;38.33;;;;;;;8.70;100.00;102013.16;5048478;28;20036;-78
2023/11/15 07:53:50;;;;;;;90.55;39.55;;;;;;;9.03;100.00;102025.38;5048274;28;20029;-79
2023/11/15 07:56:19;;;;;;;98.50;41.60;;;;;;;9.19;100.00;102027.25;5030202;28;20075;-78
2023/11/15 07:58:49;;;;;;;90.82;39.08;;;;;;;9.59;100.00;102097.94;5047874;28;20032;-76
2023/11/15 08:01:15;;;;;;;88.90;42.20;;;;;;;8.83;100.00;101968.53;5048249;28;20061;-75
2023/11/15 08:03:43;;;;;;;80.55;39.40;;;;;;;9.29;100.00;102023.97;5048123;28;20063;-77
2023/11/15 08:06:09;;;;;;;82.00;38.60;;;;;;;9.91;100.00;102115.16;5048259;28;20101;-78
2023/11/15 08:08:36;;;;;;;82.75;38.00;;;;;;;9.84;100.00;102088.88;5046658;28;20112;-78
2023/11/15 08:11:03;;;;;;;76.85;37.63;;;;;;;9.54;100.00;102036.09;5047132;28;20090;-78
2023/11/15 08:13:29;;;;;;;79.43;39.65;;;;;;;9.20;100.00;102018.81;5047987;28;20029;-79
2023/11/15 08:15:56;;;;;;;80.07;39.22;;;;;;;9.79;100.00;102098.13;5047640;28;20052;-76
2023/11/15 08:18:22;;;;;;;83.40;40.58;;;;;;;9.77;100.00;102038.81;5048275;28;20118;-78
2023/11/15 08:20:48;;;;;;;79.82;40.50;;;;;;;10.32;100.00;102076.56;5048221;28;20495;-78
2023/11/15 08:23:13;;;;;;;80.35;38.92;;;;;;;10.43;100.00;102072.41;5046461;28;20030;-78
2023/11/15 08:25:47;;;;;;;73.28;37.50;;;;;;;10.37;100.00;102067.28;5032819;28;20033;-76
2023/11/15 08:28:13;;;;;;;80.05;38.88;;;;;;;10.50;100.00;102080.09;5050088;28;20032;-77
2023/11/15 08:30:39;;;;;;;77.05;38.70;;;;;;;11.03;100.00;102087.13;5033824;28;20037;-77
2023/11/15 08:33:05;;;;;;;71.38;35.33;;;;;;;11.06;100.00;102076.13;5051674;28;20036;-78
2023/11/15 08:35:31;;;;;;;68.45;36.80;;;;;;;10.61;100.00;101987.72;5051379;28;20040;-77
2023/11/15 08:37:58;;;;;;;69.05;35.58;;;;;;;11.34;100.00;102071.13;5050847;28;20037;-77
2023/11/15 08:40:24;;;;;;;56.92;33.20;;;;;;;11.12;100.00;102043.03;5050840;28;20025;-77
2023/11/15 08:42:51;;;;;;;63.78;36.10;;;;;;;11.23;100.00;102042.22;5050076;28;20112;-77
2023/11/15 08:45:18;;;;;;;61.25;34.53;;;;;;;11.60;100.00;102022.78;5033600;28;20499;-78
2023/11/15 08:47:43;;;;;;;56.90;33.90;;;;;;;11.30;100.00;101971.81;5051711;28;20448;-79
2023/11/15 08:50:09;;;;;;;59.03;33.70;;;;;;;12.19;100.00;102048.28;5050369;28;20036;-78
2023/11/15 08:52:40;;;;;;;53.42;33.38;;;;;;;12.16;100.00;102013.44;5051555;28;20033;-77
2023/11/15 08:55:11;;;;;;;55.03;32.67;;;;;;;11.80;100.00;101984.59;5051225;28;20534;-78
2023/11/15 08:57:37;;;;;;;62.83;33.78;;;;;;;11.92;100.00;102004.97;5051434;28;20041;-78
2023/11/15 09:00:07;;;;;;;55.03;32.65;;;;;;;12.03;100.00;101999.00;5050820;28;20502;-78
2023/11/15 09:02:32;;;;;;;60.90;34.58;;;;;;;11.72;100.00;101956.56;5033415;28;20040;-79
2023/11/15 09:05:01;;;;;;;56.15;34.63;;;;;;;11.90;100.00;101987.16;5050830;28;20092;-76
2023/11/15 09:07:27;;;;;;;68.28;37.85;;;;;;;12.00;100.00;101960.75;5034330;28;20029;-77
2023/11/15 09:09:54;;;;;;;75.47;41.50;;;;;;;11.40;100.00;101925.13;5033128;28;20025;-75
2023/11/15 09:12:27;;;;;;;76.97;41.60;;;;;;;11.95;100.00;101970.13;5050686;28;20028;-75
2023/11/15 09:14:53;;;;;;;73.45;41.47;;;;;;;11.61;100.00;101908.97;5049979;28;20029;-76
2023/11/15 09:17:20;;;;;;;74.20;40.75;;;;;;;12.16;100.00;101982.00;5033202;28;20048;-75
2023/11/15 09:19:49;;;;;;;77.10;41.20;;;;;;;12.18;100.00;101973.47;5050653;28;20036;-77
2023/11/15 09:22:17;;;;;;;69.85;40.78;;;;;;;12.33;100.00;101981.94;5033855;28;20041;-76
2023/11/15 09:24:43;;;;;;;72.32;40.88;;;;;;;12.27;100.00;101949.66;5050769;28;20020;-77
2023/11/15 09:27:08;;;;;;;67.75;39.95;;;;;;;12.23;100.00;101965.81;5051174;28;20414;-77
2023/11/15 09:29:35;;;;;;;69.65;40.50;;;;;;;11.93;100.00;101895.34;5050674;28;20029;-77
2023/11/15 09:32:01;;;;;;;73.18;40.30;;;;;;;12.32;100.00;101959.84;5050989;28;20067;-76
2023/11/15 09:34:26;;;;;;;72.22;40.25;;;;;;;11.82;100.00;101892.00;5050454;28;20060;-76
2023/11/15 09:36:51;;;;;;;69.88;39.45;;;;;;;11.79;100.00;101874.16;5049329;28;20033;-76
2023/11/15 09:39:17;;;;;;;64.60;37.30;;;;;;;12.01;100.00;101913.19;5050514;28;20044;-76
2023/11/15 09:41:53;;;;;;;62.90;36.70;;;;;;;11.80;100.00;101858.03;5050116;28;20472;-77
2023/11/15 09:44:23;;;;;;;73.05;40.65;;;;;;;12.20;100.00;101925.88;5049253;28;20037;-77
2023/11/15 09:46:58;;;;;;;73.75;42.15;;;;;;;12.34;100.00;101919.88;5050251;28;20052;-78
2023/11/15 09:49:27;;;;;;;68.57;41.13;;;;;;;11.77;100.00;101836.78;5049595;28;20067;-81
2023/11/15 09:51:54;;;;;;;81.80;45.25;;;;;;;11.89;100.00;101862.22;5032880;28;20065;-78
2023/11/15 09:54:22;;;;;;;79.70;44.42;;;;;;;11.29;100.00;101774.88;5050298;28;20032;-80
2023/11/15 09:56:50;;;;;;;79.00;45.05;;;;;;;11.88;100.00;101858.84;5050453;28;20025;-81
2023/11/15 09:59:18;;;;;;;77.65;44.05;;;;;;;12.24;100.00;101926.69;5032191;28;20056;-79
2023/11/15 10:01:45;;;;;;;83.30;43.85;;;;;;;12.09;100.00;101917.41;5050152;28;20045;-78
2023/11/15 10:04:29;;;;;;;82.20;44.50;;;;;;;11.78;100.00;101847.00;5032357;28;20029;-72
2023/11/15 10:06:58;;;;;;;86.47;44.88;;;;;;;12.18;100.00;101896.16;5046482;28;20079;-78
2023/11/15 10:09:38;;;;;;;84.85;46.40;;;;;;;11.73;100.00;101823.19;5050092;28;20118;-77
2023/11/15 10:12:08;;;;;;;84.05;45.30;;;;;;;12.23;100.00;101884.22;5049491;28;20033;-79
2023/11/15 10:14:35;;;;;;;94.57;50.35;;;;;;;12.18;100.00;101875.75;5049308;28;20043;-78
2023/11/15 10:17:03;;;;;;;82.60;43.92;;;;;;;11.86;100.00;101803.63;5049217;28;20026;-77
2023/11/15 10:19:29;;;;;;;80.95;43.33;;;;;;;11.52;100.00;101738.31;5049867;28;20025;-79
2023/11/15 10:22:02;;;;;;;72.16;41.60;;;;;;;12.35;100.00;101856.09;4698985;28;10001244;-73
2023/11/15 10:24:28;;;;;;;79.63;44.22;;;;;;;12.17;100.00;101815.38;5045631;28;20040;-73
2023/11/15 10:26:56;;;;;;;74.18;41.42;;;;;;;12.50;100.00;101865.38;5028431;28;20119;-72
2023/11/15 10:29:21;;;;;;;72.30;41.28;;;;;;;12.63;100.00;101870.41;5046480;28;20024;-72
2023/11/15 10:31:53;;;;;;;72.88;40.13;;;;;;;12.66;100.00;101841.44;5045499;28;20025;-72
2023/11/15 10:34:29;;;;;;;73.70;39.28;;;;;;;12.88;100.00;101850.66;5045210;28;20036;-74
2023/11/15 10:37:01;;;;;;;71.05;44.95;;;;;;;12.91;100.00;101850.66;5028001;28;20074;-72
2023/11/15 10:39:26;;;;;;;66.65;40.00;;;;;;;12.78;100.00;101824.34;5045786;28;20036;-73
2023/11/15 10:41:52;;;;;;;62.20;38.60;;;;;;;12.96;100.00;101849.75;5046199;28;20029;-75
2023/11/15 10:44:21;;;;;;;69.68;39.83;;;;;;;13.15;100.00;101870.09;5046284;28;20041;-73
2023/11/15 10:46:48;;;;;;;67.38;37.78;;;;;;;12.98;100.00;101854.84;5026526;28;20065;-73
2023/11/15 10:49:18;;;;;;;58.40;29.35;;;;;;;13.95;100.00;101913.59;5048394;28;20125;-78
2023/11/15 10:51:44;;;;;;;45.70;29.45;;;;;;;13.90;100.00;101877.84;5047766;28;20039;-73
2023/11/15 10:54:13;;;;;;;57.60;36.75;;;;;;;13.46;100.00;101849.38;5047946;28;20044;-73
2023/11/15 10:56:40;;;;;;;52.92;35.55;;;;;;;13.52;100.00;101836.53;5046376;28;20056;-72
2023/11/15 10:59:09;;;;;;;63.53;38.10;;;;;;;13.59;100.00;101830.47;5029519;28;20603;-74
2023/11/15 11:01:36;;;;;;;76.75;49.97;;;;;;;13.83;100.00;101870.25;5029576;28;20040;-73
2023/11/15 11:04:06;;;;;;;73.80;45.92;;;;;;;13.79;100.00;101838.78;5047430;28;20025;-72